sensor_id;sensor_type;location;lat;lon;timestamp;P1;durP1;ratioP1;P2;durP2;ratioP2
34920;SDS011;21128;50.016;20.002;2023-04-25T00:01:41;16.73;;;14.93;;
34920;SDS011;21128;50.016;20.002;2023-04-25T00:04:08;16.30;;;14.00;;
34920;SDS011;21128;50.016;20.002;2023-04-25T00:06:35;17.70;;;14.20;;
34920;SDS011;21128;50.016;20.002;2023-04-25T00:09:05;17.03;;;13.53;;
34920;SDS011;21128;50.016;20.002;2023-04-25T00:11:37;15.60;;;13.67;;
34920;SDS011;21128;50.016;20.002;2023-04-25T00:14:04;16.63;;;14.17;;
34920;SDS011;21128;50.016;20.002;2023-04-25T00:16:33;15.03;;;11.80;;
34920;SDS011;21128;50.016;20.002;2023-04-25T00:19:01;10.75;;;9.15;;
34920;SDS011;21128;50.016;20.002;2023-04-25T00:21:29;10.03;;;6.87;;
34920;SDS011;21128;50.016;20.002;2023-04-25T00:23:58;7.50;;;6.17;;
34920;SDS011;21128;50.016;20.002;2023-04-25T00:26:25;5.77;;;3.60;;
34920;SDS011;21128;50.016;20.002;2023-04-25T00:28:53;4.20;;;3.40;;
34920;SDS011;21128;50.016;20.002;2023-04-25T00:31:20;3.02;;;2.80;;
34920;SDS011;21128;50.016;20.002;2023-04-25T00:33:48;2.87;;;2.67;;
34920;SDS011;21128;50.016;20.002;2023-04-25T00:36:15;3.47;;;2.60;;
34920;SDS011;21128;50.016;20.002;2023-04-25T00:38:43;2.45;;;2.20;;
34920;SDS011;21128;50.016;20.002;2023-04-25T00:41:10;3.03;;;2.10;;
34920;SDS011;21128;50.016;20.002;2023-04-25T00:43:38;2.90;;;1.80;;
34920;SDS011;21128;50.016;20.002;2023-04-25T00:46:06;3.07;;;1.77;;
34920;SDS011;21128;50.016;20.002;2023-04-25T00:48:33;2.73;;;1.60;;
34920;SDS011;21128;50.016;20.002;2023-04-25T00:51:00;2.70;;;1.30;;
34920;SDS011;21128;50.016;20.002;2023-04-25T00:53:28;2.40;;;1.30;;
34920;SDS011;21128;50.016;20.002;2023-04-25T00:55:56;2.23;;;1.90;;
34920;SDS011;21128;50.016;20.002;2023-04-25T00:58:24;1.95;;;1.70;;
34920;SDS011;21128;50.016;20.002;2023-04-25T01:00:51;4.73;;;1.50;;
34920;SDS011;21128;50.016;20.002;2023-04-25T01:03:18;3.17;;;1.67;;
34920;SDS011;21128;50.016;20.002;2023-04-25T01:05:49;1.90;;;1.67;;
34920;SDS011;21128;50.016;20.002;2023-04-25T01:08:17;1.60;;;1.50;;
34920;SDS011;21128;50.016;20.002;2023-04-25T01:10:44;1.92;;;1.72;;
34920;SDS011;21128;50.016;20.002;2023-04-25T01:13:11;4.00;;;1.70;;
34920;SDS011;21128;50.016;20.002;2023-04-25T01:15:38;4.45;;;2.10;;
34920;SDS011;21128;50.016;20.002;2023-04-25T01:18:05;4.07;;;2.47;;
34920;SDS011;21128;50.016;20.002;2023-04-25T01:20:33;3.83;;;2.63;;
34920;SDS011;21128;50.016;20.002;2023-04-25T01:23:00;5.10;;;3.00;;
34920;SDS011;21128;50.016;20.002;2023-04-25T01:25:32;4.17;;;3.00;;
34920;SDS011;21128;50.016;20.002;2023-04-25T01:28:00;5.43;;;3.90;;
34920;SDS011;21128;50.016;20.002;2023-04-25T01:30:27;6.20;;;3.92;;
34920;SDS011;21128;50.016;20.002;2023-04-25T01:32:55;5.80;;;4.30;;
34920;SDS011;21128;50.016;20.002;2023-04-25T01:35:23;7.25;;;4.65;;
34920;SDS011;21128;50.016;20.002;2023-04-25T01:37:50;6.97;;;5.37;;
34920;SDS011;21128;50.016;20.002;2023-04-25T01:40:18;10.63;;;6.08;;
34920;SDS011;21128;50.016;20.002;2023-04-25T01:42:47;7.90;;;5.17;;
34920;SDS011;21128;50.016;20.002;2023-04-25T01:45:14;7.17;;;5.00;;
34920;SDS011;21128;50.016;20.002;2023-04-25T01:47:41;9.77;;;5.40;;
34920;SDS011;21128;50.016;20.002;2023-04-25T01:50:10;8.85;;;5.55;;
34920;SDS011;21128;50.016;20.002;2023-04-25T01:52:38;7.70;;;5.80;;
34920;SDS011;21128;50.016;20.002;2023-04-25T01:55:05;6.35;;;5.45;;
34920;SDS011;21128;50.016;20.002;2023-04-25T01:57:32;7.43;;;5.87;;
34920;SDS011;21128;50.016;20.002;2023-04-25T02:00:00;8.27;;;5.00;;
34920;SDS011;21128;50.016;20.002;2023-04-25T02:02:29;7.83;;;5.47;;
34920;SDS011;21128;50.016;20.002;2023-04-25T02:04:56;7.97;;;5.60;;
34920;SDS011;21128;50.016;20.002;2023-04-25T02:07:23;9.00;;;5.77;;
34920;SDS011;21128;50.016;20.002;2023-04-25T02:09:52;10.27;;;6.87;;
34920;SDS011;21128;50.016;20.002;2023-04-25T02:12:19;16.55;;;6.67;;
34920;SDS011;21128;50.016;20.002;2023-04-25T02:14:46;8.90;;;7.03;;
34920;SDS011;21128;50.016;20.002;2023-04-25T02:17:13;10.53;;;7.07;;
34920;SDS011;21128;50.016;20.002;2023-04-25T02:19:40;9.60;;;6.55;;
34920;SDS011;21128;50.016;20.002;2023-04-25T02:22:07;10.77;;;6.47;;
34920;SDS011;21128;50.016;20.002;2023-04-25T02:24:34;9.87;;;7.10;;
34920;SDS011;21128;50.016;20.002;2023-04-25T02:27:01;9.67;;;6.20;;
34920;SDS011;21128;50.016;20.002;2023-04-25T02:29:29;9.20;;;6.03;;
34920;SDS011;21128;50.016;20.002;2023-04-25T02:31:56;6.45;;;5.75;;
34920;SDS011;21128;50.016;20.002;2023-04-25T02:34:23;11.90;;;6.25;;
34920;SDS011;21128;50.016;20.002;2023-04-25T02:36:52;9.60;;;6.67;;
34920;SDS011;21128;50.016;20.002;2023-04-25T02:39:19;8.43;;;6.65;;
34920;SDS011;21128;50.016;20.002;2023-04-25T02:41:48;11.63;;;6.63;;
34920;SDS011;21128;50.016;20.002;2023-04-25T02:44:15;8.95;;;6.50;;
34920;SDS011;21128;50.016;20.002;2023-04-25T02:46:42;8.37;;;6.07;;
34920;SDS011;21128;50.016;20.002;2023-04-25T02:49:09;8.60;;;5.73;;
34920;SDS011;21128;50.016;20.002;2023-04-25T02:51:36;9.20;;;5.87;;
34920;SDS011;21128;50.016;20.002;2023-04-25T02:54:03;9.20;;;5.53;;
34920;SDS011;21128;50.016;20.002;2023-04-25T02:56:30;7.43;;;5.37;;
34920;SDS011;21128;50.016;20.002;2023-04-25T02:58:56;11.10;;;5.67;;
34920;SDS011;21128;50.016;20.002;2023-04-25T03:01:23;8.07;;;5.30;;
34920;SDS011;21128;50.016;20.002;2023-04-25T03:03:50;6.93;;;4.40;;
34920;SDS011;21128;50.016;20.002;2023-04-25T03:06:17;6.07;;;5.07;;
34920;SDS011;21128;50.016;20.002;2023-04-25T03:08:44;6.67;;;4.80;;
34920;SDS011;21128;50.016;20.002;2023-04-25T03:11:11;9.83;;;5.67;;
34920;SDS011;21128;50.016;20.002;2023-04-25T03:13:38;7.23;;;5.20;;
34920;SDS011;21128;50.016;20.002;2023-04-25T03:16:05;9.67;;;5.53;;
34920;SDS011;21128;50.016;20.002;2023-04-25T03:18:32;10.70;;;6.05;;
34920;SDS011;21128;50.016;20.002;2023-04-25T03:20:59;9.53;;;6.47;;
34920;SDS011;21128;50.016;20.002;2023-04-25T03:23:26;12.88;;;8.98;;
34920;SDS011;21128;50.016;20.002;2023-04-25T03:25:53;14.70;;;8.07;;
34920;SDS011;21128;50.016;20.002;2023-04-25T03:28:20;14.27;;;10.50;;
34920;SDS011;21128;50.016;20.002;2023-04-25T03:30:47;16.93;;;10.73;;
34920;SDS011;21128;50.016;20.002;2023-04-25T03:33:14;14.27;;;10.53;;
34920;SDS011;21128;50.016;20.002;2023-04-25T03:35:41;13.65;;;10.80;;
34920;SDS011;21128;50.016;20.002;2023-04-25T03:38:09;15.20;;;11.90;;
34920;SDS011;21128;50.016;20.002;2023-04-25T03:40:36;18.40;;;10.98;;
34920;SDS011;21128;50.016;20.002;2023-04-25T03:43:03;13.23;;;11.27;;
34920;SDS011;21128;50.016;20.002;2023-04-25T03:45:30;14.17;;;11.33;;
34920;SDS011;21128;50.016;20.002;2023-04-25T03:47:57;14.90;;;10.20;;
34920;SDS011;21128;50.016;20.002;2023-04-25T03:50:24;11.73;;;8.67;;
34920;SDS011;21128;50.016;20.002;2023-04-25T03:52:51;10.77;;;8.93;;
34920;SDS011;21128;50.016;20.002;2023-04-25T03:55:18;13.38;;;8.85;;
34920;SDS011;21128;50.016;20.002;2023-04-25T03:57:45;11.87;;;7.93;;
34920;SDS011;21128;50.016;20.002;2023-04-25T04:00:12;11.48;;;8.33;;
34920;SDS011;21128;50.016;20.002;2023-04-25T04:02:40;12.25;;;9.30;;
34920;SDS011;21128;50.016;20.002;2023-04-25T04:05:07;15.10;;;9.73;;
34920;SDS011;21128;50.016;20.002;2023-04-25T04:07:34;12.10;;;9.43;;
34920;SDS011;21128;50.016;20.002;2023-04-25T04:10:07;12.23;;;9.40;;
34920;SDS011;21128;50.016;20.002;2023-04-25T04:12:34;12.00;;;9.27;;
34920;SDS011;21128;50.016;20.002;2023-04-25T04:15:02;11.87;;;9.97;;
34920;SDS011;21128;50.016;20.002;2023-04-25T04:17:33;12.40;;;10.80;;
34920;SDS011;21128;50.016;20.002;2023-04-25T04:20:00;12.77;;;9.90;;
34920;SDS011;21128;50.016;20.002;2023-04-25T04:22:27;16.57;;;9.83;;
34920;SDS011;21128;50.016;20.002;2023-04-25T04:24:54;12.35;;;10.28;;
34920;SDS011;21128;50.016;20.002;2023-04-25T04:27:23;11.93;;;8.73;;
34920;SDS011;21128;50.016;20.002;2023-04-25T04:29:50;12.68;;;10.03;;
34920;SDS011;21128;50.016;20.002;2023-04-25T04:32:19;15.80;;;11.57;;
34920;SDS011;21128;50.016;20.002;2023-04-25T04:34:46;14.55;;;10.95;;
34920;SDS011;21128;50.016;20.002;2023-04-25T04:37:13;14.77;;;11.40;;
34920;SDS011;21128;50.016;20.002;2023-04-25T04:39:41;12.63;;;10.43;;
34920;SDS011;21128;50.016;20.002;2023-04-25T04:42:08;14.83;;;10.73;;
34920;SDS011;21128;50.016;20.002;2023-04-25T04:44:35;12.60;;;10.47;;
34920;SDS011;21128;50.016;20.002;2023-04-25T04:47:03;14.40;;;9.85;;
34920;SDS011;21128;50.016;20.002;2023-04-25T04:49:33;14.60;;;10.97;;
34920;SDS011;21128;50.016;20.002;2023-04-25T04:52:00;17.50;;;10.07;;
34920;SDS011;21128;50.016;20.002;2023-04-25T04:54:27;16.23;;;13.30;;
34920;SDS011;21128;50.016;20.002;2023-04-25T04:56:54;16.63;;;12.53;;
34920;SDS011;21128;50.016;20.002;2023-04-25T04:59:21;18.27;;;13.93;;
34920;SDS011;21128;50.016;20.002;2023-04-25T05:01:48;16.43;;;13.47;;
34920;SDS011;21128;50.016;20.002;2023-04-25T05:04:15;16.03;;;14.07;;
34920;SDS011;21128;50.016;20.002;2023-04-25T05:06:42;17.63;;;13.37;;
34920;SDS011;21128;50.016;20.002;2023-04-25T05:09:09;15.78;;;13.48;;
34920;SDS011;21128;50.016;20.002;2023-04-25T05:11:36;17.67;;;14.57;;
34920;SDS011;21128;50.016;20.002;2023-04-25T05:14:03;16.77;;;14.40;;
34920;SDS011;21128;50.016;20.002;2023-04-25T05:16:30;17.53;;;14.57;;
34920;SDS011;21128;50.016;20.002;2023-04-25T05:18:57;20.33;;;15.93;;
34920;SDS011;21128;50.016;20.002;2023-04-25T05:21:24;17.65;;;14.95;;
34920;SDS011;21128;50.016;20.002;2023-04-25T05:23:51;23.93;;;14.13;;
34920;SDS011;21128;50.016;20.002;2023-04-25T05:26:18;19.85;;;12.58;;
34920;SDS011;21128;50.016;20.002;2023-04-25T05:28:47;21.83;;;14.30;;
34920;SDS011;21128;50.016;20.002;2023-04-25T05:31:14;16.30;;;12.40;;
34920;SDS011;21128;50.016;20.002;2023-04-25T05:33:41;12.27;;;10.47;;
34920;SDS011;21128;50.016;20.002;2023-04-25T05:36:08;13.15;;;9.68;;
34920;SDS011;21128;50.016;20.002;2023-04-25T05:38:35;15.20;;;9.73;;
34920;SDS011;21128;50.016;20.002;2023-04-25T05:41:02;15.13;;;8.73;;
34920;SDS011;21128;50.016;20.002;2023-04-25T05:43:28;12.07;;;7.57;;
34920;SDS011;21128;50.016;20.002;2023-04-25T05:45:56;13.40;;;6.70;;
34920;SDS011;21128;50.016;20.002;2023-04-25T05:48:23;13.93;;;7.77;;
34920;SDS011;21128;50.016;20.002;2023-04-25T05:50:50;11.18;;;7.20;;
34920;SDS011;21128;50.016;20.002;2023-04-25T05:53:18;10.03;;;5.70;;
34920;SDS011;21128;50.016;20.002;2023-04-25T05:55:46;8.70;;;5.90;;
34920;SDS011;21128;50.016;20.002;2023-04-25T05:58:13;10.67;;;6.27;;
34920;SDS011;21128;50.016;20.002;2023-04-25T06:00:40;8.37;;;5.87;;
34920;SDS011;21128;50.016;20.002;2023-04-25T06:03:08;9.93;;;5.47;;
34920;SDS011;21128;50.016;20.002;2023-04-25T06:05:41;9.80;;;4.80;;
34920;SDS011;21128;50.016;20.002;2023-04-25T06:08:09;12.27;;;5.77;;
34920;SDS011;21128;50.016;20.002;2023-04-25T06:10:37;8.17;;;5.00;;
34920;SDS011;21128;50.016;20.002;2023-04-25T06:13:05;13.77;;;5.30;;
34920;SDS011;21128;50.016;20.002;2023-04-25T06:15:32;9.10;;;5.00;;
34920;SDS011;21128;50.016;20.002;2023-04-25T06:17:59;8.77;;;5.07;;
34920;SDS011;21128;50.016;20.002;2023-04-25T06:20:26;8.70;;;4.35;;
34920;SDS011;21128;50.016;20.002;2023-04-25T06:22:52;10.57;;;4.27;;
34920;SDS011;21128;50.016;20.002;2023-04-25T06:25:20;5.43;;;3.90;;
34920;SDS011;21128;50.016;20.002;2023-04-25T06:27:47;8.20;;;4.33;;
34920;SDS011;21128;50.016;20.002;2023-04-25T06:30:14;9.93;;;5.25;;
34920;SDS011;21128;50.016;20.002;2023-04-25T06:32:41;8.37;;;4.57;;
34920;SDS011;21128;50.016;20.002;2023-04-25T06:35:08;10.50;;;4.87;;
34920;SDS011;21128;50.016;20.002;2023-04-25T06:37:36;10.43;;;4.67;;
34920;SDS011;21128;50.016;20.002;2023-04-25T06:40:03;7.33;;;5.40;;
34920;SDS011;21128;50.016;20.002;2023-04-25T06:42:31;11.25;;;5.00;;
34920;SDS011;21128;50.016;20.002;2023-04-25T06:44:58;12.77;;;5.43;;
34920;SDS011;21128;50.016;20.002;2023-04-25T06:47:25;11.90;;;5.23;;
34920;SDS011;21128;50.016;20.002;2023-04-25T06:49:51;9.77;;;5.40;;
34920;SDS011;21128;50.016;20.002;2023-04-25T06:52:18;10.63;;;5.40;;
34920;SDS011;21128;50.016;20.002;2023-04-25T06:54:45;9.03;;;5.10;;
34920;SDS011;21128;50.016;20.002;2023-04-25T06:57:12;9.60;;;4.80;;
34920;SDS011;21128;50.016;20.002;2023-04-25T06:59:39;8.83;;;4.85;;
34920;SDS011;21128;50.016;20.002;2023-04-25T07:02:06;7.87;;;4.87;;
34920;SDS011;21128;50.016;20.002;2023-04-25T07:04:33;8.97;;;4.70;;
34920;SDS011;21128;50.016;20.002;2023-04-25T07:07:00;7.50;;;4.67;;
34920;SDS011;21128;50.016;20.002;2023-04-25T07:09:29;8.30;;;3.90;;
34920;SDS011;21128;50.016;20.002;2023-04-25T07:11:56;6.67;;;4.33;;
34920;SDS011;21128;50.016;20.002;2023-04-25T07:14:23;7.10;;;3.50;;
34920;SDS011;21128;50.016;20.002;2023-04-25T07:16:50;4.90;;;3.80;;
34920;SDS011;21128;50.016;20.002;2023-04-25T07:19:17;8.30;;;4.03;;
34920;SDS011;21128;50.016;20.002;2023-04-25T07:21:44;7.53;;;3.73;;
34920;SDS011;21128;50.016;20.002;2023-04-25T07:24:11;7.60;;;3.73;;
34920;SDS011;21128;50.016;20.002;2023-04-25T07:26:38;6.97;;;4.12;;
34920;SDS011;21128;50.016;20.002;2023-04-25T07:29:05;4.90;;;3.90;;
34920;SDS011;21128;50.016;20.002;2023-04-25T07:31:32;6.40;;;3.90;;
34920;SDS011;21128;50.016;20.002;2023-04-25T07:33:59;8.13;;;4.10;;
34920;SDS011;21128;50.016;20.002;2023-04-25T07:36:26;6.57;;;4.27;;
34920;SDS011;21128;50.016;20.002;2023-04-25T07:38:53;6.93;;;4.53;;
34920;SDS011;21128;50.016;20.002;2023-04-25T07:41:20;7.70;;;4.37;;
34920;SDS011;21128;50.016;20.002;2023-04-25T07:43:47;7.90;;;4.30;;
34920;SDS011;21128;50.016;20.002;2023-04-25T07:46:14;6.37;;;4.43;;
34920;SDS011;21128;50.016;20.002;2023-04-25T07:48:41;9.53;;;3.98;;
34920;SDS011;21128;50.016;20.002;2023-04-25T07:51:08;8.93;;;5.20;;
34920;SDS011;21128;50.016;20.002;2023-04-25T07:53:34;5.17;;;2.60;;
34920;SDS011;21128;50.016;20.002;2023-04-25T07:56:02;3.93;;;2.90;;
34920;SDS011;21128;50.016;20.002;2023-04-25T07:58:29;3.47;;;2.87;;
34920;SDS011;21128;50.016;20.002;2023-04-25T08:00:56;2.97;;;2.43;;
34920;SDS011;21128;50.016;20.002;2023-04-25T08:03:23;3.77;;;2.40;;
34920;SDS011;21128;50.016;20.002;2023-04-25T08:05:50;3.77;;;2.87;;
34920;SDS011;21128;50.016;20.002;2023-04-25T08:08:16;3.50;;;2.70;;
34920;SDS011;21128;50.016;20.002;2023-04-25T08:10:43;4.33;;;2.60;;
34920;SDS011;21128;50.016;20.002;2023-04-25T08:13:10;4.07;;;2.90;;
34920;SDS011;21128;50.016;20.002;2023-04-25T08:15:37;8.85;;;2.90;;
34920;SDS011;21128;50.016;20.002;2023-04-25T08:18:04;7.73;;;3.47;;
34920;SDS011;21128;50.016;20.002;2023-04-25T08:20:32;5.00;;;2.57;;
34920;SDS011;21128;50.016;20.002;2023-04-25T08:22:58;5.62;;;3.33;;
34920;SDS011;21128;50.016;20.002;2023-04-25T08:25:25;4.97;;;3.17;;
34920;SDS011;21128;50.016;20.002;2023-04-25T08:27:52;5.07;;;3.50;;
34920;SDS011;21128;50.016;20.002;2023-04-25T08:30:19;4.20;;;3.20;;
34920;SDS011;21128;50.016;20.002;2023-04-25T08:32:47;12.17;;;6.07;;
34920;SDS011;21128;50.016;20.002;2023-04-25T08:35:14;11.90;;;5.67;;
34920;SDS011;21128;50.016;20.002;2023-04-25T08:37:42;8.73;;;3.97;;
34920;SDS011;21128;50.016;20.002;2023-04-25T08:40:11;5.85;;;3.60;;
34920;SDS011;21128;50.016;20.002;2023-04-25T08:42:43;4.50;;;4.00;;
34920;SDS011;21128;50.016;20.002;2023-04-25T08:45:12;6.30;;;3.87;;
34920;SDS011;21128;50.016;20.002;2023-04-25T08:47:39;8.75;;;4.20;;
34920;SDS011;21128;50.016;20.002;2023-04-25T08:50:08;5.93;;;3.57;;
34920;SDS011;21128;50.016;20.002;2023-04-25T08:52:36;5.37;;;4.30;;
34920;SDS011;21128;50.016;20.002;2023-04-25T08:55:12;8.53;;;4.43;;
34920;SDS011;21128;50.016;20.002;2023-04-25T08:57:42;5.43;;;4.17;;
34920;SDS011;21128;50.016;20.002;2023-04-25T09:00:11;7.57;;;4.20;;
34920;SDS011;21128;50.016;20.002;2023-04-25T09:02:39;5.33;;;3.80;;
34920;SDS011;21128;50.016;20.002;2023-04-25T09:05:07;8.97;;;4.83;;
34920;SDS011;21128;50.016;20.002;2023-04-25T09:07:36;6.00;;;4.23;;
34920;SDS011;21128;50.016;20.002;2023-04-25T09:10:03;5.07;;;3.80;;
34920;SDS011;21128;50.016;20.002;2023-04-25T09:12:30;6.22;;;5.03;;
34920;SDS011;21128;50.016;20.002;2023-04-25T09:15:03;7.57;;;4.50;;
34920;SDS011;21128;50.016;20.002;2023-04-25T09:17:32;6.50;;;5.05;;
34920;SDS011;21128;50.016;20.002;2023-04-25T09:20:09;14.33;;;5.50;;
34920;SDS011;21128;50.016;20.002;2023-04-25T09:22:38;6.53;;;4.50;;
34920;SDS011;21128;50.016;20.002;2023-04-25T09:25:10;7.27;;;4.33;;
34920;SDS011;21128;50.016;20.002;2023-04-25T09:27:51;6.10;;;4.33;;
34920;SDS011;21128;50.016;20.002;2023-04-25T09:30:29;6.00;;;4.20;;
34920;SDS011;21128;50.016;20.002;2023-04-25T09:32:58;6.00;;;4.30;;
34920;SDS011;21128;50.016;20.002;2023-04-25T09:35:39;7.05;;;4.40;;
34920;SDS011;21128;50.016;20.002;2023-04-25T09:38:13;6.37;;;4.27;;
34920;SDS011;21128;50.016;20.002;2023-04-25T09:40:42;3.77;;;3.37;;
34920;SDS011;21128;50.016;20.002;2023-04-25T09:43:19;5.27;;;3.90;;
34920;SDS011;21128;50.016;20.002;2023-04-25T09:45:48;8.40;;;4.63;;
34920;SDS011;21128;50.016;20.002;2023-04-25T09:48:21;5.13;;;3.53;;
34920;SDS011;21128;50.016;20.002;2023-04-25T09:51:08;5.77;;;3.87;;
34920;SDS011;21128;50.016;20.002;2023-04-25T09:53:45;6.37;;;4.57;;
34920;SDS011;21128;50.016;20.002;2023-04-25T09:56:16;6.27;;;4.37;;
34920;SDS011;21128;50.016;20.002;2023-04-25T09:58:43;8.05;;;4.65;;
34920;SDS011;21128;50.016;20.002;2023-04-25T10:01:10;7.10;;;4.60;;
34920;SDS011;21128;50.016;20.002;2023-04-25T10:03:38;7.33;;;4.90;;
34920;SDS011;21128;50.016;20.002;2023-04-25T10:06:11;5.87;;;4.50;;
34920;SDS011;21128;50.016;20.002;2023-04-25T10:08:40;5.80;;;4.57;;
34920;SDS011;21128;50.016;20.002;2023-04-25T10:11:08;6.27;;;4.53;;
34920;SDS011;21128;50.016;20.002;2023-04-25T10:13:35;9.00;;;5.23;;
34920;SDS011;21128;50.016;20.002;2023-04-25T10:16:03;9.37;;;4.87;;
34920;SDS011;21128;50.016;20.002;2023-04-25T10:18:32;6.73;;;4.17;;
34920;SDS011;21128;50.016;20.002;2023-04-25T10:21:00;8.80;;;4.60;;
34920;SDS011;21128;50.016;20.002;2023-04-25T10:23:29;5.53;;;4.17;;
34920;SDS011;21128;50.016;20.002;2023-04-25T10:25:57;7.07;;;4.40;;
34920;SDS011;21128;50.016;20.002;2023-04-25T10:28:25;6.40;;;3.80;;
34920;SDS011;21128;50.016;20.002;2023-04-25T10:31:02;5.97;;;4.00;;
34920;SDS011;21128;50.016;20.002;2023-04-25T10:36:08;7.20;;;3.40;;
34920;SDS011;21128;50.016;20.002;2023-04-25T10:38:36;4.17;;;3.23;;
34920;SDS011;21128;50.016;20.002;2023-04-25T10:41:05;5.55;;;3.10;;
34920;SDS011;21128;50.016;20.002;2023-04-25T10:43:39;3.97;;;3.20;;
34920;SDS011;21128;50.016;20.002;2023-04-25T10:46:17;3.85;;;2.75;;
34920;SDS011;21128;50.016;20.002;2023-04-25T10:48:54;8.07;;;3.30;;
34920;SDS011;21128;50.016;20.002;2023-04-25T10:51:26;2.58;;;2.05;;
34920;SDS011;21128;50.016;20.002;2023-04-25T10:56:22;6.90;;;2.73;;
34920;SDS011;21128;50.016;20.002;2023-04-25T10:58:51;4.33;;;2.60;;
34920;SDS011;21128;50.016;20.002;2023-04-25T11:01:24;3.20;;;2.50;;
34920;SDS011;21128;50.016;20.002;2023-04-25T11:03:56;4.10;;;3.00;;
34920;SDS011;21128;50.016;20.002;2023-04-25T11:06:29;4.43;;;2.80;;
34920;SDS011;21128;50.016;20.002;2023-04-25T11:09:17;4.60;;;3.00;;
34920;SDS011;21128;50.016;20.002;2023-04-25T11:11:52;3.43;;;2.73;;
34920;SDS011;21128;50.016;20.002;2023-04-25T11:14:24;3.57;;;2.67;;
34920;SDS011;21128;50.016;20.002;2023-04-25T11:16:54;5.17;;;2.90;;
34920;SDS011;21128;50.016;20.002;2023-04-25T11:19:23;4.50;;;3.27;;
34920;SDS011;21128;50.016;20.002;2023-04-25T11:21:58;4.57;;;3.13;;
34920;SDS011;21128;50.016;20.002;2023-04-25T11:24:27;5.73;;;3.10;;
34920;SDS011;21128;50.016;20.002;2023-04-25T11:26:58;4.90;;;3.03;;
34920;SDS011;21128;50.016;20.002;2023-04-25T11:29:26;4.13;;;2.80;;
34920;SDS011;21128;50.016;20.002;2023-04-25T11:31:54;6.00;;;3.47;;
34920;SDS011;21128;50.016;20.002;2023-04-25T11:34:24;5.20;;;3.40;;
34920;SDS011;21128;50.016;20.002;2023-04-25T11:36:52;6.57;;;3.47;;
34920;SDS011;21128;50.016;20.002;2023-04-25T11:39:19;5.57;;;3.80;;
34920;SDS011;21128;50.016;20.002;2023-04-25T11:41:47;4.40;;;3.70;;
34920;SDS011;21128;50.016;20.002;2023-04-25T11:44:17;3.90;;;3.23;;
34920;SDS011;21128;50.016;20.002;2023-04-25T11:46:45;4.70;;;3.70;;
34920;SDS011;21128;50.016;20.002;2023-04-25T11:49:13;8.30;;;3.70;;
34920;SDS011;21128;50.016;20.002;2023-04-25T11:51:42;7.70;;;3.70;;
34920;SDS011;21128;50.016;20.002;2023-04-25T11:54:13;10.50;;;4.43;;
34920;SDS011;21128;50.016;20.002;2023-04-25T11:56:41;7.93;;;4.10;;
34920;SDS011;21128;50.016;20.002;2023-04-25T11:59:09;7.13;;;4.13;;
34920;SDS011;21128;50.016;20.002;2023-04-25T12:01:37;6.37;;;4.67;;
34920;SDS011;21128;50.016;20.002;2023-04-25T12:04:12;9.87;;;3.87;;
34920;SDS011;21128;50.016;20.002;2023-04-25T12:06:48;6.37;;;4.17;;
34920;SDS011;21128;50.016;20.002;2023-04-25T12:09:21;6.70;;;4.80;;
34920;SDS011;21128;50.016;20.002;2023-04-25T12:11:55;9.95;;;4.30;;
34920;SDS011;21128;50.016;20.002;2023-04-25T12:14:31;6.47;;;4.37;;
34920;SDS011;21128;50.016;20.002;2023-04-25T12:17:01;10.63;;;4.83;;
34920;SDS011;21128;50.016;20.002;2023-04-25T12:19:32;7.57;;;4.67;;
34920;SDS011;21128;50.016;20.002;2023-04-25T12:22:01;10.07;;;4.67;;
34920;SDS011;21128;50.016;20.002;2023-04-25T12:24:33;8.87;;;4.87;;
34920;SDS011;21128;50.016;20.002;2023-04-25T12:27:02;12.30;;;4.90;;
34920;SDS011;21128;50.016;20.002;2023-04-25T12:29:31;9.77;;;4.53;;
34920;SDS011;21128;50.016;20.002;2023-04-25T12:31:59;8.93;;;5.13;;
34920;SDS011;21128;50.016;20.002;2023-04-25T12:34:28;12.23;;;6.30;;
34920;SDS011;21128;50.016;20.002;2023-04-25T12:36:55;9.63;;;5.95;;
34920;SDS011;21128;50.016;20.002;2023-04-25T12:39:24;7.43;;;3.73;;
34920;SDS011;21128;50.016;20.002;2023-04-25T12:41:52;5.07;;;3.60;;
34920;SDS011;21128;50.016;20.002;2023-04-25T12:44:22;8.03;;;4.50;;
34920;SDS011;21128;50.016;20.002;2023-04-25T12:46:49;8.10;;;5.00;;
34920;SDS011;21128;50.016;20.002;2023-04-25T12:49:16;14.73;;;4.47;;
34920;SDS011;21128;50.016;20.002;2023-04-25T12:51:43;5.70;;;3.75;;
34920;SDS011;21128;50.016;20.002;2023-04-25T12:54:10;4.90;;;3.20;;
34920;SDS011;21128;50.016;20.002;2023-04-25T12:56:37;6.77;;;2.93;;
34920;SDS011;21128;50.016;20.002;2023-04-25T12:59:05;5.08;;;3.02;;
34920;SDS011;21128;50.016;20.002;2023-04-25T13:01:32;7.47;;;3.37;;
34920;SDS011;21128;50.016;20.002;2023-04-25T13:03:59;7.47;;;4.33;;
34920;SDS011;21128;50.016;20.002;2023-04-25T13:06:26;10.00;;;4.20;;
34920;SDS011;21128;50.016;20.002;2023-04-25T13:08:53;9.47;;;4.20;;
34920;SDS011;21128;50.016;20.002;2023-04-25T13:11:21;9.83;;;5.10;;
34920;SDS011;21128;50.016;20.002;2023-04-25T13:13:47;4.60;;;3.60;;
34920;SDS011;21128;50.016;20.002;2023-04-25T13:16:14;7.83;;;3.63;;
34920;SDS011;21128;50.016;20.002;2023-04-25T13:18:41;7.17;;;3.53;;
34920;SDS011;21128;50.016;20.002;2023-04-25T13:21:11;5.72;;;3.10;;
34920;SDS011;21128;50.016;20.002;2023-04-25T13:23:38;9.00;;;3.40;;
34920;SDS011;21128;50.016;20.002;2023-04-25T13:26:05;6.10;;;2.58;;
34920;SDS011;21128;50.016;20.002;2023-04-25T13:28:32;5.57;;;2.93;;
34920;SDS011;21128;50.016;20.002;2023-04-25T13:30:59;5.03;;;3.10;;
34920;SDS011;21128;50.016;20.002;2023-04-25T13:33:26;7.27;;;3.77;;
34920;SDS011;21128;50.016;20.002;2023-04-25T13:35:53;7.40;;;3.20;;
34920;SDS011;21128;50.016;20.002;2023-04-25T13:38:22;6.23;;;3.73;;
34920;SDS011;21128;50.016;20.002;2023-04-25T13:40:50;4.80;;;3.60;;
34920;SDS011;21128;50.016;20.002;2023-04-25T13:43:20;12.33;;;6.07;;
34920;SDS011;21128;50.016;20.002;2023-04-25T13:45:48;6.50;;;3.90;;
34920;SDS011;21128;50.016;20.002;2023-04-25T13:48:17;8.87;;;4.27;;
34920;SDS011;21128;50.016;20.002;2023-04-25T13:50:45;8.10;;;3.90;;
34920;SDS011;21128;50.016;20.002;2023-04-25T13:53:12;5.87;;;3.80;;
34920;SDS011;21128;50.016;20.002;2023-04-25T13:55:39;10.30;;;5.80;;
34920;SDS011;21128;50.016;20.002;2023-04-25T13:58:06;10.17;;;4.37;;
34920;SDS011;21128;50.016;20.002;2023-04-25T14:00:35;6.03;;;3.83;;
34920;SDS011;21128;50.016;20.002;2023-04-25T14:03:04;7.60;;;3.80;;
34920;SDS011;21128;50.016;20.002;2023-04-25T14:05:34;4.27;;;3.23;;
34920;SDS011;21128;50.016;20.002;2023-04-25T14:08:06;5.47;;;3.73;;
34920;SDS011;21128;50.016;20.002;2023-04-25T14:10:33;5.50;;;3.43;;
34920;SDS011;21128;50.016;20.002;2023-04-25T14:13:02;6.90;;;3.83;;
34920;SDS011;21128;50.016;20.002;2023-04-25T14:15:31;5.60;;;3.40;;
34920;SDS011;21128;50.016;20.002;2023-04-25T14:17:58;5.03;;;3.40;;
34920;SDS011;21128;50.016;20.002;2023-04-25T14:20:26;3.80;;;2.60;;
34920;SDS011;21128;50.016;20.002;2023-04-25T14:22:54;4.33;;;2.90;;
34920;SDS011;21128;50.016;20.002;2023-04-25T14:25:22;5.27;;;2.73;;
34920;SDS011;21128;50.016;20.002;2023-04-25T14:27:50;4.57;;;3.37;;
34920;SDS011;21128;50.016;20.002;2023-04-25T14:30:17;5.55;;;3.02;;
34920;SDS011;21128;50.016;20.002;2023-04-25T14:32:45;4.25;;;3.15;;
34920;SDS011;21128;50.016;20.002;2023-04-25T14:35:12;6.20;;;3.10;;
34920;SDS011;21128;50.016;20.002;2023-04-25T14:37:40;6.03;;;3.37;;
34920;SDS011;21128;50.016;20.002;2023-04-25T14:40:07;11.77;;;4.67;;